Time;durP1;ratioP1;P1;durP2;ratioP2;P2;SDS_P1;SDS_P2;PMS_P1;PMS_P2;Temp;Humidity;BMP_temperature;BMP_pressure;BME280_temperature;BME280_humidity;BME280_pressure;Samples;Min_cycle;Max_cycle;Signal;HPM_P1;HPM_P2
2022/04/29 00:01:24;;;;;;;11.27;6.07;;;11.30;99.90;;;;;;5036320;28;20411;-80
2022/04/29 00:03:53;;;;;;;6.88;6.38;;;11.30;99.90;;;;;;5035950;28;20407;-80
2022/04/29 00:06:19;;;;;;;7.38;6.68;;;11.40;99.90;;;;;;5035929;28;20387;-80
2022/04/29 00:08:45;;;;;;;6.95;6.38;;;11.30;99.90;;;;;;5035941;28;20465;-80
2022/04/29 00:11:11;;;;;;;7.30;6.70;;;11.30;99.90;;;;;;5035834;28;20513;-80
2022/04/29 00:13:37;;;;;;;7.25;6.65;;;11.30;99.90;;;;;;5035639;28;20407;-80
2022/04/29 00:16:05;;;;;;;7.22;6.68;;;11.20;99.90;;;;;;5035688;28;20398;-80
2022/04/29 00:18:31;;;;;;;7.30;6.70;;;11.00;99.90;;;;;;5035757;28;20381;-80
2022/04/29 00:20:57;;;;;;;7.35;6.80;;;11.10;99.90;;;;;;5035533;28;20481;-80
2022/04/29 00:23:22;;;;;;;6.85;6.32;;;11.10;99.90;;;;;;5035977;28;20880;-80
2022/04/29 00:25:48;;;;;;;7.60;7.00;;;11.20;99.90;;;;;;5035582;28;20464;-80
2022/04/29 00:28:14;;;;;;;7.22;6.63;;;11.20;99.90;;;;;;5035596;28;20787;-80
2022/04/29 00:30:40;;;;;;;7.07;6.53;;;11.20;99.90;;;;;;5035526;28;20453;-80
2022/04/29 00:33:06;;;;;;;7.10;6.50;;;11.20;99.90;;;;;;5035339;28;20402;-80
2022/04/29 00:35:31;;;;;;;7.03;6.47;;;11.00;99.90;;;;;;5035401;28;20387;-80
2022/04/29 00:37:58;;;;;;;7.00;6.50;;;10.90;99.90;;;;;;5034197;28;20397;-80
2022/04/29 00:40:26;;;;;;;7.25;6.65;;;10.80;99.90;;;;;;5035327;28;20379;-80
2022/04/29 00:42:52;;;;;;;6.97;6.45;;;10.90;99.90;;;;;;5035290;28;20399;-80
2022/04/29 00:45:19;;;;;;;7.47;6.88;;;11.00;99.90;;;;;;5031490;28;20407;-80
2022/04/29 00:47:47;;;;;;;6.80;6.25;;;11.40;99.90;;;;;;5025900;28;20393;-80
2022/04/29 00:50:15;;;;;;;7.35;6.72;;;10.80;99.90;;;;;;5026539;28;20755;-80
2022/04/29 00:52:45;;;;;;;7.28;6.57;;;10.90;99.90;;;;;;5035056;28;20410;-81
2022/04/29 00:55:12;;;;;;;7.68;6.93;;;11.10;99.90;;;;;;5034962;28;20387;-80
2022/04/29 00:57:51;;;;;;;6.90;6.40;;;11.00;99.90;;;;;;5035026;28;20414;-80
2022/04/29 01:00:19;;;;;;;6.90;6.40;;;10.90;99.90;;;;;;5034973;28;20383;-81
2022/04/29 01:02:52;;;;;;;6.97;6.35;;;11.00;99.90;;;;;;5034901;28;20448;-80
2022/04/29 01:05:20;;;;;;;7.70;7.10;;;10.90;99.90;;;;;;5034929;28;20461;-80
2022/04/29 01:07:48;;;;;;;7.10;6.60;;;10.80;99.90;;;;;;5034759;28;20922;-80
2022/04/29 01:10:15;;;;;;;7.20;6.70;;;10.90;99.90;;;;;;5034797;28;20879;-80
2022/04/29 01:12:43;;;;;;;6.82;6.20;;;10.90;99.90;;;;;;5034596;28;20888;-80
2022/04/29 01:15:13;;;;;;;6.82;6.32;;;10.80;99.90;;;;;;5034809;28;20383;-80
2022/04/29 01:17:39;;;;;;;6.60;6.10;;;10.60;99.90;;;;;;5032164;28;20873;-80
2022/04/29 01:20:07;;;;;;;6.80;6.30;;;10.60;99.90;;;;;;5014851;28;20490;-80
2022/04/29 01:22:33;;;;;;;6.75;6.25;;;10.50;99.90;;;;;;5028002;28;20388;-80
2022/04/29 01:24:59;;;;;;;6.68;6.25;;;10.60;99.90;;;;;;5034453;28;20399;-80
2022/04/29 01:27:25;;;;;;;7.18;6.57;;;10.60;99.90;;;;;;5034521;28;20409;-80
2022/04/29 01:30:06;;;;;;;7.13;6.53;;;10.60;99.90;;;;;;5030506;28;20388;-80
2022/04/29 01:32:33;;;;;;;6.82;6.32;;;10.60;99.90;;;;;;5013612;28;20769;-80
2022/04/29 01:34:59;;;;;;;6.80;6.30;;;10.90;99.90;;;;;;5017161;28;20814;-80
2022/04/29 01:37:25;;;;;;;6.68;6.18;;;10.50;99.90;;;;;;5024428;28;20835;-80
2022/04/29 01:39:51;;;;;;;7.03;6.43;;;10.50;99.90;;;;;;5034388;28;20398;-80
2022/04/29 01:42:17;;;;;;;6.80;6.35;;;10.60;99.90;;;;;;5034338;28;20453;-80
2022/04/29 01:44:45;;;;;;;6.55;6.07;;;10.40;99.90;;;;;;5033050;28;20393;-80
2022/04/29 01:47:11;;;;;;;6.73;6.23;;;10.40;99.90;;;;;;5031755;28;20436;-80
2022/04/29 01:49:37;;;;;;;7.07;6.55;;;11.00;99.90;;;;;;5017208;28;20401;-80
2022/04/29 01:52:03;;;;;;;7.30;6.70;;;10.50;99.90;;;;;;5018486;28;20387;-81
2022/04/29 01:54:28;;;;;;;6.82;6.32;;;10.30;99.90;;;;;;5023439;28;20779;-81
2022/04/29 01:56:54;;;;;;;7.05;6.45;;;10.30;99.90;;;;;;5033442;28;20409;-80
2022/04/29 01:59:20;;;;;;;7.07;6.57;;;10.30;99.90;;;;;;5021502;28;20403;-81
2022/04/29 02:01:47;;;;;;;6.95;6.40;;;10.30;99.90;;;;;;5015389;28;20476;-81
2022/04/29 02:04:14;;;;;;;6.68;6.18;;;10.70;99.90;;;;;;5012684;28;20886;-81
2022/04/29 02:06:39;;;;;;;6.68;6.07;;;10.40;99.90;;;;;;5009758;28;20407;-80
2022/04/29 02:09:05;;;;;;;6.95;6.38;;;10.20;99.90;;;;;;5003105;28;20402;-80
2022/04/29 02:11:31;;;;;;;6.47;5.97;;;10.30;99.90;;;;;;5049661;28;20868;-81
2022/04/29 02:13:57;;;;;;;7.00;6.50;;;10.30;99.90;;;;;;5032020;28;20445;-81
2022/04/29 02:16:23;;;;;;;6.40;6.00;;;10.20;99.90;;;;;;5033605;28;20382;-81
2022/04/29 02:18:49;;;;;;;6.93;6.32;;;10.40;99.90;;;;;;5032746;28;20760;-81
2022/04/29 02:21:14;;;;;;;7.43;6.82;;;10.00;99.90;;;;;;5032807;28;20753;-81
2022/04/29 02:23:40;;;;;;;6.60;6.10;;;10.00;99.90;;;;;;5032558;28;20466;-81
2022/04/29 02:26:06;;;;;;;7.03;6.43;;;10.10;99.90;;;;;;5033312;28;20911;-80
2022/04/29 02:28:32;;;;;;;6.82;6.32;;;10.00;99.90;;;;;;5033339;28;20855;-80
2022/04/29 02:30:58;;;;;;;6.65;6.15;;;10.20;99.90;;;;;;5033337;28;20934;-81
2022/04/29 02:33:25;;;;;;;7.10;6.50;;;10.00;99.90;;;;;;5031842;28;20529;-81
2022/04/29 02:35:51;;;;;;;6.93;6.23;;;10.50;99.90;;;;;;5033522;28;20395;-81
2022/04/29 02:38:16;;;;;;;6.32;5.72;;;10.10;99.90;;;;;;5029920;28;20387;-80
2022/04/29 02:40:42;;;;;;;6.32;5.93;;;10.20;99.90;;;;;;5021882;28;20383;-80
2022/04/29 02:43:08;;;;;;;6.50;6.00;;;10.20;99.90;;;;;;5032936;28;20398;-81
2022/04/29 02:45:34;;;;;;;6.63;6.13;;;10.10;99.90;;;;;;5032960;28;20800;-81
2022/04/29 02:47:59;;;;;;;6.85;6.28;;;10.10;99.90;;;;;;5033107;28;20456;-80
2022/04/29 02:50:25;;;;;;;6.72;6.22;;;10.10;99.90;;;;;;5024347;28;20391;-81
2022/04/29 02:52:51;;;;;;;6.60;6.10;;;10.00;99.90;;;;;;5032849;28;20553;-81
2022/04/29 02:55:18;;;;;;;6.57;6.07;;;10.40;99.90;;;;;;5032845;28;20838;-81
2022/04/29 02:57:43;;;;;;;6.78;6.28;;;10.00;99.90;;;;;;5032579;28;20384;-81
2022/04/29 03:00:10;;;;;;;7.17;6.57;;;9.90;99.90;;;;;;5032849;28;20448;-81
2022/04/29 03:02:36;;;;;;;7.13;6.53;;;9.80;99.90;;;;;;5032653;28;20391;-80
2022/04/29 03:05:01;;;;;;;6.85;6.35;;;9.60;99.90;;;;;;5032695;28;20398;-81
2022/04/29 03:07:27;;;;;;;7.20;6.70;;;9.60;99.90;;;;;;5032588;28;20393;-81
2022/04/29 03:09:52;;;;;;;6.97;6.40;;;9.60;99.90;;;;;;5023797;28;20408;-80
2022/04/29 03:12:18;;;;;;;7.00;6.40;;;9.60;99.90;;;;;;5016836;28;20480;-80
2022/04/29 03:14:44;;;;;;;6.78;6.28;;;9.60;99.90;;;;;;5032615;28;20876;-80
2022/04/29 03:18:17;;;;;;;6.63;6.13;;;9.80;99.90;;;;;;5032621;28;20387;-81
2022/04/29 03:19:57;;;;;;;6.45;5.95;;;9.90;99.90;;;;;;5032266;28;20809;-80
2022/04/29 03:22:26;;;;;;;6.88;6.35;;;9.90;99.90;;;;;;5032506;28;20395;-81
2022/04/29 03:25:27;;;;;;;6.55;5.95;;;9.80;99.90;;;;;;5018006;28;20399;-80
2022/04/29 03:27:52;;;;;;;6.72;6.22;;;9.90;99.90;;;;;;5032139;28;20521;-80
2022/04/29 03:30:18;;;;;;;7.10;6.60;;;9.80;99.90;;;;;;5032344;28;20409;-80
2022/04/29 03:32:54;;;;;;;7.22;6.63;;;9.80;99.90;;;;;;5031343;28;20403;-80
2022/04/29 03:35:20;;;;;;;6.70;6.20;;;9.70;99.90;;;;;;5032195;28;20409;-81
2022/04/29 03:37:46;;;;;;;6.63;6.13;;;9.70;99.90;;;;;;5021956;28;20738;-81
2022/04/29 03:40:15;;;;;;;6.57;6.07;;;9.80;99.90;;;;;;5030734;28;20471;-80
2022/04/29 03:42:41;;;;;;;6.68;6.18;;;9.70;99.90;;;;;;5022234;28;20473;-80
2022/04/29 03:45:07;;;;;;;6.80;6.40;;;9.70;99.90;;;;;;5032008;28;20426;-80
2022/04/29 03:47:33;;;;;;;7.30;6.80;;;9.70;99.90;;;;;;5032160;28;20398;-80
2022/04/29 03:50:01;;;;;;;6.95;6.45;;;9.60;99.90;;;;;;5023538;28;20401;-80
2022/04/29 03:52:28;;;;;;;6.70;6.13;;;9.60;99.90;;;;;;5032179;28;20456;-80
2022/04/29 03:54:56;;;;;;;7.15;6.55;;;9.60;99.90;;;;;;5032110;28;20879;-80
2022/04/29 03:57:21;;;;;;;6.70;6.20;;;10.00;99.90;;;;;;5032037;28;20387;-80
2022/04/29 03:59:48;;;;;;;6.50;6.00;;;9.60;99.90;;;;;;5031966;28;20403;-80
2022/04/29 04:02:14;;;;;;;7.05;6.55;;;9.50;99.90;;;;;;5032001;28;20460;-80
2022/04/29 04:04:40;;;;;;;6.70;6.20;;;9.70;99.90;;;;;;5024051;28;20412;-80
2022/04/29 04:07:06;;;;;;;6.80;6.10;;;9.50;99.90;;;;;;5015605;28;20400;-80
2022/04/29 04:09:31;;;;;;;6.90;6.40;;;9.50;99.90;;;;;;5029662;28;20410;-80
2022/04/29 04:11:57;;;;;;;7.40;6.80;;;9.50;99.90;;;;;;5022404;28;20436;-80
2022/04/29 04:14:22;;;;;;;6.80;6.23;;;9.30;99.90;;;;;;5031821;28;20753;-80
2022/04/29 04:16:48;;;;;;;7.20;6.60;;;9.30;99.90;;;;;;5031861;28;20433;-80
2022/04/29 04:19:14;;;;;;;7.07;6.57;;;9.20;99.90;;;;;;5031219;28;20394;-80
2022/04/29 04:21:40;;;;;;;6.70;6.20;;;9.40;99.90;;;;;;5031534;28;20745;-80
2022/04/29 04:24:06;;;;;;;6.97;6.40;;;9.60;99.90;;;;;;5020260;28;20491;-80
2022/04/29 04:26:32;;;;;;;7.20;6.70;;;9.30;99.90;;;;;;5012443;28;20478;-80
2022/04/29 04:28:58;;;;;;;7.23;6.20;;;9.20;99.90;;;;;;5011559;28;20941;-80
2022/04/29 04:31:24;;;;;;;6.78;6.18;;;9.10;99.90;;;;;;5011420;28;20459;-80
2022/04/29 04:33:53;;;;;;;7.05;6.40;;;9.40;99.90;;;;;;5011352;28;20814;-80
2022/04/29 04:36:20;;;;;;;6.20;5.70;;;9.20;99.90;;;;;;5026336;28;20474;-80
2022/04/29 04:38:47;;;;;;;6.60;6.10;;;9.20;99.90;;;;;;5032191;28;20384;-80
2022/04/29 04:41:15;;;;;;;6.18;5.68;;;9.60;99.90;;;;;;5015468;28;20464;-79
2022/04/29 04:43:42;;;;;;;6.72;6.22;;;9.10;99.90;;;;;;5031071;28;20517;-80
2022/04/29 04:46:08;;;;;;;7.47;6.78;;;9.70;99.90;;;;;;5035267;28;20379;-80
2022/04/29 04:48:34;;;;;;;6.80;6.30;;;9.10;99.90;;;;;;5035203;28;20399;-80
2022/04/29 04:51:03;;;;;;;8.00;6.30;;;9.20;99.90;;;;;;5026911;28;20784;-80
2022/04/29 04:53:29;;;;;;;7.13;6.50;;;9.30;99.90;;;;;;5035181;28;20403;-80
2022/04/29 04:55:55;;;;;;;6.82;6.32;;;9.20;99.90;;;;;;5035101;28;20391;-80
2022/04/29 04:58:21;;;;;;;7.30;6.63;;;9.40;99.90;;;;;;5035025;28;20541;-80
2022/04/29 05:00:46;;;;;;;6.87;6.37;;;9.30;99.90;;;;;;5035036;28;20387;-80
2022/04/29 05:03:12;;;;;;;6.67;6.17;;;9.30;99.90;;;;;;5034982;28;20396;-80
2022/04/29 05:05:39;;;;;;;6.93;6.43;;;9.30;99.90;;;;;;5023202;28;20472;-80
2022/04/29 05:08:04;;;;;;;7.05;6.45;;;9.40;99.90;;;;;;5015157;28;20393;-80
2022/04/29 05:10:30;;;;;;;7.10;6.53;;;9.30;99.90;;;;;;5014903;28;20510;-80
2022/04/29 05:12:55;;;;;;;6.63;6.13;;;9.50;99.90;;;;;;5015233;28;20840;-79
2022/04/29 05:15:21;;;;;;;7.25;6.57;;;9.40;99.90;;;;;;5012581;28;20410;-79
2022/04/29 05:17:47;;;;;;;6.90;6.35;;;9.60;99.90;;;;;;5015909;28;20377;-79
2022/04/29 05:20:14;;;;;;;7.15;6.55;;;9.70;99.90;;;;;;5016489;28;20745;-79
2022/04/29 05:22:39;;;;;;;6.90;6.40;;;9.90;99.90;;;;;;5014160;28;20446;-79
2022/04/29 05:25:06;;;;;;;8.00;7.20;;;9.80;99.90;;;;;;5015603;28;20389;-79
2022/04/29 05:27:32;;;;;;;7.07;6.47;;;9.70;99.90;;;;;;5013770;28;20392;-80
2022/04/29 05:29:58;;;;;;;6.97;6.38;;;9.60;99.90;;;;;;5014075;28;20401;-79
2022/04/29 05:32:25;;;;;;;7.25;6.65;;;9.80;99.90;;;;;;5015047;28;21020;-79
2022/04/29 05:34:51;;;;;;;7.03;6.43;;;10.10;99.90;;;;;;5015534;28;20571;-79
2022/04/29 05:37:18;;;;;;;7.07;6.57;;;9.90;99.90;;;;;;5015583;28;20483;-80
2022/04/29 05:42:27;;;;;;;7.55;6.78;;;10.00;99.90;;;;;;5012974;28;20939;-80
2022/04/29 05:44:53;;;;;;;7.30;6.60;;;10.10;99.90;;;;;;5015212;28;20393;-79
2022/04/29 05:47:19;;;;;;;7.22;6.63;;;10.20;99.90;;;;;;5013909;28;20396;-80
2022/04/29 05:49:45;;;;;;;6.93;6.43;;;10.10;99.90;;;;;;5019633;28;20435;-80
2022/04/29 05:52:10;;;;;;;6.47;5.97;;;10.40;99.90;;;;;;5033297;28;20387;-79
2022/04/29 05:54:36;;;;;;;7.50;6.85;;;10.40;99.90;;;;;;5034179;28;20856;-80
2022/04/29 05:57:03;;;;;;;6.68;6.18;;;10.40;99.90;;;;;;5032948;28;20468;-80
2022/04/29 05:59:32;;;;;;;7.18;6.57;;;10.60;99.90;;;;;;5022131;28;20412;-80
2022/04/29 06:01:58;;;;;;;7.25;6.60;;;10.60;99.90;;;;;;5029537;28;20387;-80
2022/04/29 06:04:24;;;;;;;7.78;7.05;;;10.50;99.90;;;;;;5016927;28;20852;-79
2022/04/29 06:06:50;;;;;;;7.72;7.05;;;10.50;99.90;;;;;;5012020;28;20404;-79
2022/04/29 06:09:16;;;;;;;7.38;6.78;;;10.60;99.90;;;;;;5029395;28;20390;-79
2022/04/29 06:11:42;;;;;;;7.40;6.90;;;10.50;99.90;;;;;;5031765;28;20380;-80
2022/04/29 06:14:08;;;;;;;7.22;6.60;;;10.30;99.90;;;;;;5017962;28;20417;-80
2022/04/29 06:16:33;;;;;;;8.15;7.45;;;10.50;99.90;;;;;;5028968;28;20407;-80
2022/04/29 06:18:59;;;;;;;7.78;7.10;;;10.50;99.90;;;;;;5025639;28;20419;-80
2022/04/29 06:21:25;;;;;;;8.07;7.43;;;10.90;99.90;;;;;;5033285;28;20868;-80
2022/04/29 06:23:50;;;;;;;8.40;7.70;;;10.80;99.90;;;;;;5033336;28;20401;-80
2022/04/29 06:26:16;;;;;;;8.43;7.63;;;10.90;99.90;;;;;;5033574;28;20391;-80
2022/04/29 06:28:42;;;;;;;9.43;8.63;;;11.00;99.90;;;;;;5033520;28;20856;-80
2022/04/29 06:31:08;;;;;;;9.55;8.70;;;11.10;99.90;;;;;;5033326;28;20387;-80
2022/04/29 06:33:34;;;;;;;10.00;9.20;;;11.20;99.90;;;;;;5023549;28;20482;-81
2022/04/29 06:36:01;;;;;;;10.15;9.35;;;11.00;99.90;;;;;;5033516;28;20465;-81
2022/04/29 06:38:27;;;;;;;11.20;10.30;;;10.90;99.90;;;;;;5033095;28;20454;-81
2022/04/29 06:40:53;;;;;;;10.82;9.93;;;11.00;99.90;;;;;;5033036;28;20903;-81
2022/04/29 06:43:19;;;;;;;9.98;9.18;;;11.60;99.90;;;;;;5026760;28;20871;-81
2022/04/29 06:45:46;;;;;;;10.13;9.43;;;11.20;99.90;;;;;;5032981;28;20390;-81
2022/04/29 06:48:11;;;;;;;9.77;8.98;;;11.10;99.90;;;;;;5032912;28;20741;-81
2022/04/29 06:50:37;;;;;;;9.73;9.03;;;11.20;99.90;;;;;;5023086;28;20403;-81
2022/04/29 06:53:02;;;;;;;10.90;10.00;;;11.40;99.90;;;;;;5024652;28;20416;-81
2022/04/29 06:55:28;;;;;;;11.50;10.70;;;11.30;99.90;;;;;;5005834;28;20734;-81
2022/04/29 06:57:54;;;;;;;12.25;11.35;;;11.30;99.90;;;;;;5008789;28;20395;-81
2022/04/29 07:00:20;;;;;;;14.30;13.13;;;11.20;99.90;;;;;;5016757;28;20393;-81
2022/04/29 07:02:46;;;;;;;14.10;13.00;;;11.30;99.90;;;;;;5015984;28;20875;-80
2022/04/29 07:05:13;;;;;;;15.65;14.23;;;11.50;99.90;;;;;;5029532;28;20390;-80
2022/04/29 07:07:39;;;;;;;15.15;13.85;;;11.60;99.90;;;;;;5032351;28;20394;-81
2022/04/29 07:10:05;;;;;;;15.37;14.20;;;11.60;99.90;;;;;;5012417;28;20395;-80
2022/04/29 07:12:38;;;;;;;14.60;13.40;;;11.30;99.90;;;;;;5027550;28;20399;-80
2022/04/29 07:15:04;;;;;;;14.30;13.10;;;11.50;99.90;;;;;;5032611;28;20399;-80
2022/04/29 07:17:30;;;;;;;13.40;12.20;;;11.50;99.90;;;;;;5032618;28;20473;-80
2022/04/29 07:19:56;;;;;;;12.73;11.80;;;11.50;99.90;;;;;;5019098;28;20393;-80
2022/04/29 07:22:21;;;;;;;11.55;10.65;;;11.60;99.90;;;;;;5024291;28;20450;-80
2022/04/29 07:24:47;;;;;;;10.30;9.50;;;11.60;99.90;;;;;;5032247;28;20387;-80
2022/04/29 07:27:13;;;;;;;9.10;8.30;;;11.90;99.90;;;;;;5032302;28;20425;-80
2022/04/29 07:29:39;;;;;;;9.60;8.60;;;12.10;99.90;;;;;;5032272;28;20383;-80
2022/04/29 07:32:05;;;;;;;9.27;8.57;;;12.10;99.90;;;;;;5032208;28;20402;-81
2022/04/29 07:42:43;;;;;;;8.68;7.88;;;12.40;99.90;;;;;;5025565;28;20804;-81
2022/04/29 07:45:08;;;;;;;8.43;7.82;;;12.60;99.90;;;;;;5031927;28;20391;-81
2022/04/29 07:47:36;;;;;;;7.50;6.97;;;12.50;99.90;;;;;;5031985;28;20448;-81
2022/04/29 07:50:03;;;;;;;7.40;6.80;;;12.40;99.90;;;;;;5011895;28;20407;-81
2022/04/29 07:52:28;;;;;;;7.85;7.25;;;12.60;99.90;;;;;;5028285;28;20743;-81
2022/04/29 07:54:54;;;;;;;8.00;6.93;;;12.40;99.90;;;;;;5009781;28;20471;-81
2022/04/29 07:57:19;;;;;;;9.03;8.33;;;12.50;99.90;;;;;;5015672;28;20396;-81
2022/04/29 07:59:45;;;;;;;7.70;7.10;;;12.50;99.90;;;;;;5006007;28;20535;-81
2022/04/29 08:02:10;;;;;;;7.43;6.72;;;12.70;99.90;;;;;;5011810;28;20392;-81
2022/04/29 08:04:36;;;;;;;7.35;6.75;;;13.00;99.90;;;;;;5014345;28;20940;-81
2022/04/29 08:07:02;;;;;;;7.67;7.07;;;12.80;99.90;;;;;;5011044;28;20404;-81
2022/04/29 08:09:28;;;;;;;8.10;6.85;;;12.80;99.90;;;;;;5006823;28;20387;-81
2022/04/29 08:11:54;;;;;;;7.57;6.88;;;12.70;99.90;;;;;;5005906;28;20392;-81
2022/04/29 08:14:20;;;;;;;7.53;6.82;;;12.80;99.90;;;;;;5011932;28;20412;-81
2022/04/29 08:16:46;;;;;;;7.35;6.80;;;13.00;99.90;;;;;;5009426;28;20392;-81
2022/04/29 08:19:13;;;;;;;7.07;6.47;;;13.40;99.90;;;;;;5013361;28;20384;-81
2022/04/29 08:21:38;;;;;;;7.22;6.63;;;13.30;99.90;;;;;;5006079;28;20410;-82
2022/04/29 08:24:04;;;;;;;7.10;6.50;;;13.40;99.90;;;;;;5009472;28;20393;-81
2022/04/29 08:26:30;;;;;;;7.20;6.60;;;13.40;99.90;;;;;;5018773;28;20529;-82
2022/04/29 08:28:56;;;;;;;7.00;6.35;;;13.50;99.90;;;;;;5016536;28;20431;-81
2022/04/29 08:31:22;;;;;;;6.50;6.00;;;13.70;99.90;;;;;;5017263;28;20395;-82
2022/04/29 08:33:48;;;;;;;6.63;6.00;;;13.60;99.90;;;;;;5002788;28;20417;-82
2022/04/29 08:36:15;;;;;;;6.85;5.72;;;13.70;99.90;;;;;;5011265;28;20393;-82
2022/04/29 08:38:41;;;;;;;6.50;5.90;;;13.80;99.90;;;;;;5014159;28;20766;-82
2022/04/29 08:41:08;;;;;;;6.57;5.97;;;14.00;99.90;;;;;;5014297;28;20869;-82
2022/04/29 08:43:35;;;;;;;6.55;5.95;;;14.20;99.90;;;;;;5014939;28;20392;-82
2022/04/29 08:46:01;;;;;;;6.38;5.88;;;14.30;99.90;;;;;;5008511;28;20413;-82
2022/04/29 08:48:30;;;;;;;6.22;5.72;;;14.20;99.90;;;;;;5012921;28;20454;-82
2022/04/29 08:50:58;;;;;;;6.30;5.70;;;14.30;99.90;;;;;;5014349;28;20392;-82
2022/04/29 08:53:23;;;;;;;5.55;5.05;;;14.50;99.90;;;;;;5017762;28;20499;-82
2022/04/29 08:58:36;;;;;;;6.18;5.68;;;14.60;99.90;;;;;;5017344;28;20407;-82
2022/04/29 09:01:20;;;;;;;6.18;5.57;;;14.60;99.90;;;;;;5013252;28;20388;-82
2022/04/29 09:03:46;;;;;;;5.88;5.38;;;14.70;99.90;;;;;;5013962;28;20397;-81
2022/04/29 09:06:12;;;;;;;6.35;5.68;;;14.80;99.90;;;;;;5001630;28;20394;-82
2022/04/29 09:08:40;;;;;;;6.40;5.88;;;14.90;99.90;;;;;;5008348;28;20397;-82
2022/04/29 09:11:06;;;;;;;5.60;5.20;;;15.10;99.90;;;;;;5017824;28;20395;-82
2022/04/29 09:13:37;;;;;;;5.20;4.80;;;15.20;99.90;;;;;;5015478;28;20409;-82
2022/04/29 09:16:13;;;;;;;5.60;5.20;;;15.40;99.90;;;;;;5014825;28;20381;-82
2022/04/29 09:18:43;;;;;;;6.80;5.50;;;15.50;99.90;;;;;;5014629;28;20393;-82
2022/04/29 09:21:26;;;;;;;6.60;6.00;;;15.80;99.90;;;;;;5014675;28;20814;-82
2022/04/29 09:24:18;;;;;;;5.45;4.95;;;15.90;99.90;;;;;;5005010;28;20394;-82
2022/04/29 09:26:43;;;;;;;5.10;4.70;;;16.10;99.90;;;;;;5014589;28;20404;-82
2022/04/29 09:29:18;;;;;;;5.40;4.93;;;16.30;99.90;;;;;;5018481;28;20881;-82
2022/04/29 09:31:58;;;;;;;5.13;4.40;;;16.50;99.90;;;;;;5015903;28;20397;-82
2022/04/29 09:34:43;;;;;;;5.05;4.65;;;16.80;99.90;;;;;;5014885;28;20419;-82
2022/04/29 09:37:17;;;;;;;5.43;4.78;;;16.50;99.90;;;;;;5019691;28;20397;-82
2022/04/29 09:39:57;;;;;;;5.40;4.40;;;16.30;99.90;;;;;;5034191;28;20865;-83
2022/04/29 09:42:23;;;;;;;4.23;3.83;;;16.60;99.90;;;;;;5034209;28;20399;-83
2022/04/29 09:44:49;;;;;;;3.75;3.45;;;17.00;99.90;;;;;;5033857;28;20402;-83
2022/04/29 09:47:20;;;;;;;3.67;3.42;;;17.20;99.90;;;;;;5018177;28;20514;-84
2022/04/29 09:49:58;;;;;;;5.63;3.90;;;17.40;99.90;;;;;;5014089;28;20723;-83
2022/04/29 09:52:26;;;;;;;3.63;3.33;;;17.40;99.90;;;;;;5011315;28;20898;-83
2022/04/29 09:54:52;;;;;;;4.55;3.55;;;17.70;99.90;;;;;;5015510;28;20403;-83
2022/04/29 09:57:19;;;;;;;4.07;3.78;;;17.70;99.90;;;;;;5033071;28;20883;-83
2022/04/29 09:59:58;;;;;;;5.28;3.60;;;17.80;99.90;;;;;;5025175;28;20398;-83
2022/04/29 10:02:26;;;;;;;4.10;3.47;;;18.00;99.90;;;;;;5033759;28;20379;-83
2022/04/29 10:04:53;;;;;;;3.58;3.28;;;18.20;99.90;;;;;;5033478;28;20717;-83
2022/04/29 10:07:21;;;;;;;3.83;3.20;;;18.30;99.90;;;;;;5032520;28;20876;-83
2022/04/29 10:09:54;;;;;;;4.68;3.55;;;18.40;99.90;;;;;;5027851;28;20389;-83
2022/04/29 10:12:25;;;;;;;4.50;4.10;;;18.40;99.90;;;;;;5011762;28;20938;-83
2022/04/29 10:14:59;;;;;;;3.47;3.17;;;18.60;99.90;;;;;;5033005;28;20438;-83
2022/04/29 10:23:05;;;;;;;3.67;3.38;;;18.50;99.90;;;;;;5033746;28;20438;-83
2022/04/29 10:25:32;;;;;;;3.70;3.40;;;18.60;99.90;;;;;;5033035;28;20398;-83
2022/04/29 10:27:58;;;;;;;4.60;4.20;;;18.50;99.90;;;;;;5033343;28;20402;-83
2022/04/29 10:30:26;;;;;;;7.20;6.60;;;18.60;99.90;;;;;;5027115;28;20888;-83
2022/04/29 10:33:11;;;;;;;8.13;6.90;;;18.60;99.90;;;;;;5018560;28;20517;-83
2022/04/29 10:35:39;;;;;;;8.38;6.85;;;18.40;99.90;;;;;;5029304;28;20395;-83
2022/04/29 10:38:34;;;;;;;4.68;3.67;;;18.50;99.90;;;;;;5015014;28;20468;-83
2022/04/29 10:41:10;;;;;;;4.00;3.70;;;18.70;99.90;;;;;;5056091;28;20402;-83
2022/04/29 10:43:40;;;;;;;4.35;3.80;;;18.50;99.90;;;;;;5010838;28;20522;-83
2022/04/29 10:46:06;;;;;;;4.07;3.30;;;18.40;99.90;;;;;;5013479;28;20754;-83
2022/04/29 10:48:36;;;;;;;3.73;2.90;;;18.80;99.90;;;;;;5011852;28;20391;-84
2022/04/29 10:51:27;;;;;;;4.80;2.75;;;19.00;99.90;;;;;;5015114;28;20400;-83
2022/04/29 10:53:55;;;;;;;3.73;3.33;;;19.10;99.90;;;;;;5019453;28;20411;-83
2022/04/29 10:56:30;;;;;;;3.70;3.40;;;19.00;99.90;;;;;;5021900;28;20878;-83
2022/04/29 10:59:13;;;;;;;3.58;3.25;;;19.20;99.90;;;;;;5031385;28;20734;-83
2022/04/29 11:01:40;;;;;;;3.45;3.15;;;19.30;99.90;;;;;;5032794;28;20379;-83
2022/04/29 11:04:27;;;;;;;4.30;3.40;;;19.20;99.90;;;;;;5032561;28;20418;-83
2022/04/29 11:06:53;;;;;;;4.10;3.53;;;19.20;99.90;;;;;;5026188;28;20480;-84
2022/04/29 11:09:46;;;;;;;4.03;3.55;;;19.30;99.90;;;;;;5015081;28;20483;-83
2022/04/29 11:12:39;;;;;;;3.87;3.57;;;19.20;99.90;;;;;;5031549;28;20472;-83
2022/04/29 11:15:16;;;;;;;3.90;3.60;;;19.40;99.90;;;;;;5032459;28;20387;-83
2022/04/29 11:17:43;;;;;;;3.47;3.17;;;19.30;99.90;;;;;;5032521;28;20918;-84
2022/04/29 11:20:22;;;;;;;3.33;3.03;;;19.30;99.90;;;;;;5032567;28;20385;-83
2022/04/29 11:25:53;;;;;;;3.25;2.85;;;20.00;99.90;;;;;;5022822;28;20382;-84
2022/04/29 11:28:19;;;;;;;4.85;3.65;;;20.40;99.90;;;;;;5032337;28;20398;-84
2022/04/29 11:30:47;;;;;;;3.90;3.47;;;20.60;99.90;;;;;;5032384;28;20388;-84
2022/04/29 11:33:12;;;;;;;4.20;3.40;;;20.70;99.90;;;;;;5029533;28;20405;-84
2022/04/29 11:35:39;;;;;;;3.40;3.10;;;20.70;99.90;;;;;;5020061;28;20388;-84
2022/04/29 11:38:07;;;;;;;5.23;3.37;;;20.70;99.90;;;;;;5032718;28;20870;-84
2022/04/29 11:40:37;;;;;;;3.15;2.70;;;21.00;99.90;;;;;;5032441;28;20387;-84
2022/04/29 11:43:07;;;;;;;3.85;2.92;;;21.20;99.70;;;;;;5032489;28;20462;-84
2022/04/29 11:45:33;;;;;;;4.45;3.17;;;21.10;99.90;;;;;;5031642;28;20419;-83
2022/04/29 11:48:06;;;;;;;3.88;3.53;;;21.30;99.00;;;;;;5031236;28;20419;-83
2022/04/29 11:50:36;;;;;;;3.50;3.20;;;21.20;98.90;;;;;;5023484;28;20395;-84
2022/04/29 11:53:09;;;;;;;3.20;3.00;;;21.20;98.90;;;;;;5032091;28;20564;-84
2022/04/29 11:55:35;;;;;;;3.42;2.83;;;21.30;98.20;;;;;;5034354;28;20383;-84
2022/04/29 11:58:01;;;;;;;3.00;2.78;;;21.40;99.50;;;;;;5036111;28;20406;-83
2022/04/29 12:00:30;;;;;;;2.80;2.60;;;21.60;99.30;;;;;;5033174;28;20380;-83
2022/04/29 12:02:57;;;;;;;3.50;3.20;;;21.70;97.80;;;;;;5025772;28;20383;-84
2022/04/29 12:05:25;;;;;;;3.40;3.20;;;21.80;97.30;;;;;;5011305;28;20402;-83
2022/04/29 12:07:51;;;;;;;4.18;2.85;;;21.70;99.50;;;;;;5014383;28;20880;-84
2022/04/29 12:10:18;;;;;;;3.70;3.40;;;21.90;97.80;;;;;;5005104;28;20410;-84
2022/04/29 12:12:47;;;;;;;3.50;3.20;;;22.00;96.90;;;;;;5002488;28;20428;-84
2022/04/29 12:15:17;;;;;;;3.30;3.00;;;21.80;97.10;;;;;;5006706;28;20384;-83
2022/04/29 12:17:42;;;;;;;4.00;2.80;;;21.40;97.50;;;;;;5011726;28;20519;-83
2022/04/29 12:20:14;;;;;;;2.80;2.60;;;21.50;98.90;;;;;;5002885;28;20894;-83
2022/04/29 12:22:40;;;;;;;3.03;2.72;;;21.70;96.90;;;;;;5027452;28;20402;-84
2022/04/29 12:25:26;;;;;;;3.15;2.65;;;21.90;96.20;;;;;;5017493;28;20751;-84
2022/04/29 12:28:13;;;;;;;4.07;2.40;;;22.10;94.60;;;;;;5016891;28;20402;-83
2022/04/29 12:36:53;;;;;;;2.60;2.40;;;22.20;94.70;;;;;;5018876;28;20425;-83
2022/04/29 12:39:24;;;;;;;3.10;2.40;;;22.20;94.40;;;;;;5035732;28;20386;-83
2022/04/29 12:42:01;;;;;;;2.50;2.30;;;22.20;95.10;;;;;;5035451;28;20474;-84
2022/04/29 12:47:24;;;;;;;3.47;2.80;;;22.50;94.50;;;;;;5030501;28;20380;-84
2022/04/29 12:49:53;;;;;;;3.40;2.37;;;22.40;96.40;;;;;;5016136;28;20873;-83
2022/04/29 12:52:18;;;;;;;4.03;2.65;;;22.50;95.50;;;;;;5014486;28;20752;-83
2022/04/29 12:54:44;;;;;;;3.13;2.60;;;22.50;96.20;;;;;;5013853;28;20377;-83
2022/04/29 12:57:10;;;;;;;2.90;2.60;;;22.50;96.20;;;;;;5014709;28;20416;-83
2022/04/29 12:59:38;;;;;;;3.60;2.60;;;22.30;94.30;;;;;;5017306;28;20393;-83
2022/04/29 13:02:07;;;;;;;2.78;2.58;;;22.20;95.50;;;;;;5030410;28;20746;-83
2022/04/29 13:04:33;;;;;;;3.10;2.37;;;22.20;95.00;;;;;;5034168;28;20391;-82
2022/04/29 13:07:02;;;;;;;2.60;2.40;;;22.40;94.60;;;;;;5035219;28;20734;-82
2022/04/29 13:09:28;;;;;;;3.05;2.42;;;22.40;95.20;;;;;;5027082;28;20403;-85
2022/04/29 13:11:53;;;;;;;5.00;2.72;;;22.40;94.00;;;;;;5014517;28;20454;-84
2022/04/29 13:14:19;;;;;;;2.80;2.60;;;22.50;96.10;;;;;;5013684;28;20683;-85
2022/04/29 13:16:45;;;;;;;3.20;2.42;;;22.50;93.20;;;;;;5014182;28;20499;-85
2022/04/29 13:19:11;;;;;;;2.60;2.40;;;22.40;94.50;;;;;;5015368;28;20954;-85
2022/04/29 13:21:37;;;;;;;3.28;2.20;;;22.30;93.80;;;;;;5016768;28;20424;-86
2022/04/29 13:24:03;;;;;;;2.65;2.13;;;22.20;94.40;;;;;;5019396;28;20436;-84